createdAt,value
2018-09-25T00:00:00.175Z,99.99
2018-09-25T00:01:00.158Z,99.99
2018-09-25T00:02:00.138Z,99.99
2018-09-25T00:03:00.126Z,99.99
2018-09-25T00:04:00.102Z,99.99
2018-09-25T00:05:00.085Z,99.99
2018-09-25T00:06:00.068Z,99.99
2018-09-25T00:07:00.049Z,99.99
2018-09-25T00:08:00.029Z,99.99
2018-09-25T00:09:00.012Z,99.99
2018-09-25T00:09:59.992Z,99.99
2018-09-25T00:10:59.977Z,99.99
2018-09-25T00:11:59.958Z,99.99
2018-09-25T00:12:59.941Z,99.99
2018-09-25T00:13:59.922Z,99.99
2018-09-25T00:14:59.913Z,99.99
2018-09-25T00:15:59.883Z,99.99
2018-09-25T00:16:59.869Z,99.99
2018-09-25T00:17:59.859Z,99.99
2018-09-25T00:18:59.832Z,99.99
2018-09-25T00:19:59.824Z,99.99
2018-09-25T00:20:59.796Z,99.99
2018-09-25T00:21:59.778Z,99.99
2018-09-25T00:22:59.765Z,99.99
2018-09-25T00:23:59.739Z,99.99
2018-09-25T00:24:59.722Z,99.99
2018-09-25T00:25:59.706Z,99.99
2018-09-25T00:26:59.688Z,99.99
2018-09-25T00:27:59.666Z,99.99
2018-09-25T00:28:59.652Z,99.99
2018-09-25T00:29:59.631Z,99.99
2018-09-25T00:30:59.617Z,99.99
2018-09-25T00:31:59.595Z,99.99
2018-09-25T00:32:59.578Z,99.99
2018-09-25T00:33:59.564Z,99.99
2018-09-25T00:34:59.539Z,99.99
2018-09-25T00:35:59.522Z,99.99
2018-09-25T00:36:59.506Z,99.99
2018-09-25T00:37:59.485Z,99.99
2018-09-25T00:38:59.474Z,99.99
2018-09-25T00:39:59.449Z,99.99
2018-09-25T00:40:59.430Z,99.99
2018-09-25T00:41:59.421Z,99.99
2018-09-25T00:42:59.396Z,99.99
2018-09-25T00:43:59.375Z,99.99
2018-09-25T00:44:59.358Z,99.99
2018-09-25T00:45:59.341Z,99.99
2018-09-25T00:46:59.376Z,99.99
2018-09-25T00:47:59.303Z,99.99
2018-09-25T00:48:59.291Z,99.99
2018-09-25T00:49:59.271Z,99.99
2018-09-25T00:50:59.248Z,99.99
2018-09-25T00:51:59.231Z,99.99
2018-09-25T00:52:59.226Z,99.99
2018-09-25T00:53:59.200Z,99.99
2018-09-25T00:54:59.175Z,99.99
2018-09-25T00:55:59.162Z,99.99
2018-09-25T00:56:59.142Z,99.99
2018-09-25T00:57:59.121Z,99.99
2018-09-25T00:58:59.107Z,99.99
2018-09-25T00:59:59.085Z,99.99
2018-09-25T01:00:59.067Z,99.99
2018-09-25T01:01:59.049Z,99.99
2018-09-25T01:02:59.032Z,99.99
2018-09-25T01:03:59.013Z,99.99
2018-09-25T01:04:58.996Z,99.99
2018-09-25T01:05:58.977Z,99.99
2018-09-25T01:06:58.958Z,99.99
2018-09-25T01:07:58.937Z,99.99
2018-09-25T01:08:58.919Z,99.99
2018-09-25T01:09:58.905Z,99.99
2018-09-25T01:10:58.882Z,99.99
2018-09-25T01:11:58.865Z,99.99
2018-09-25T01:12:58.843Z,99.99
2018-09-25T01:13:58.839Z,99.99
2018-09-25T01:14:58.809Z,99.99
2018-09-25T01:15:58.791Z,99.99
2018-09-25T01:16:58.774Z,99.99
2018-09-25T01:17:58.755Z,99.99
2018-09-25T01:18:58.737Z,99.99
2018-09-25T01:19:58.722Z,99.99
2018-09-25T01:20:58.698Z,99.99
2018-09-25T01:21:58.681Z,99.99
2018-09-25T01:22:58.662Z,99.99
2018-09-25T01:23:58.644Z,99.99
2018-09-25T01:24:58.631Z,99.99
2018-09-25T01:25:58.609Z,99.99
2018-09-25T01:26:58.590Z,99.99
2018-09-25T01:27:58.569Z,99.99
2018-09-25T01:28:58.553Z,99.99
2018-09-25T01:29:58.533Z,99.99
2018-09-25T01:30:58.515Z,99.99
2018-09-25T01:31:58.504Z,99.99
2018-09-25T01:32:58.481Z,99.99
2018-09-25T01:33:58.459Z,99.99
2018-09-25T01:34:58.446Z,99.99
2018-09-25T01:35:58.421Z,99.99
2018-09-25T01:36:58.410Z,99.99
2018-09-25T01:37:58.386Z,99.99
2018-09-25T01:38:58.371Z,99.99
2018-09-25T01:39:58.347Z,99.99
2018-09-25T01:40:58.329Z,99.99
2018-09-25T01:41:58.310Z,99.99
2018-09-25T01:42:58.295Z,99.99
2018-09-25T01:43:58.272Z,99.99
2018-09-25T01:44:58.256Z,99.99
2018-09-25T01:45:58.239Z,99.99
2018-09-25T01:46:58.219Z,99.99
2018-09-25T01:47:58.200Z,99.99
2018-09-25T01:48:58.182Z,99.99
2018-09-25T01:49:58.164Z,99.99
2018-09-25T01:50:58.145Z,99.99
2018-09-25T01:51:58.131Z,99.99
2018-09-25T01:52:58.107Z,99.99
2018-09-25T01:53:58.089Z,99.99
2018-09-25T01:54:58.072Z,99.99
2018-09-25T01:55:58.051Z,99.99
2018-09-25T01:56:58.034Z,99.99
2018-09-25T01:57:58.016Z,99.99
2018-09-25T01:58:58.000Z,99.99
2018-09-25T01:59:57.979Z,99.99
2018-09-25T02:00:57.961Z,99.99
2018-09-25T02:01:57.941Z,99.99
2018-09-25T02:02:57.928Z,99.99
2018-09-25T02:03:57.903Z,99.99
2018-09-25T02:04:57.887Z,99.99
2018-09-25T02:05:57.875Z,99.99
2018-09-25T02:06:57.848Z,99.99
2018-09-25T02:07:57.830Z,99.99
2018-09-25T02:08:57.815Z,99.99
2018-09-25T02:09:57.794Z,99.99
2018-09-25T02:10:57.775Z,99.99
2018-09-25T02:11:57.756Z,99.99
2018-09-25T02:12:57.741Z,99.99
2018-09-25T02:13:57.731Z,99.99
2018-09-25T02:14:57.705Z,99.99
2018-09-25T02:15:57.682Z,99.99
2018-09-25T02:16:57.668Z,99.99
2018-09-25T02:17:57.648Z,99.99
2018-09-25T02:18:57.632Z,99.99
2018-09-25T02:19:57.607Z,99.99
2018-09-25T02:20:57.589Z,99.99
2018-09-25T02:21:57.572Z,99.99
2018-09-25T02:22:57.553Z,99.99
2018-09-25T02:23:57.532Z,99.99
2018-09-25T02:24:57.513Z,99.99
2018-09-25T02:25:57.496Z,99.99
2018-09-25T02:26:57.478Z,99.99
2018-09-25T02:27:57.458Z,99.99
2018-09-25T02:28:57.442Z,99.99
2018-09-25T02:29:57.419Z,99.99
2018-09-25T02:30:57.419Z,99.99
2018-09-25T02:31:57.388Z,99.99
2018-09-25T02:32:57.366Z,99.99
2018-09-25T02:33:57.348Z,99.99
2018-09-25T02:34:57.332Z,99.99
2018-09-25T02:35:57.308Z,99.99
2018-09-25T02:36:57.290Z,99.99
2018-09-25T02:37:57.277Z,99.99
2018-09-25T02:38:57.261Z,99.99
2018-09-25T02:39:57.241Z,99.99
2018-09-25T02:40:57.215Z,99.99
2018-09-25T02:41:57.197Z,99.99
2018-09-25T02:42:57.180Z,99.99
2018-09-25T02:43:57.160Z,99.99
2018-09-25T02:44:57.139Z,99.99
2018-09-25T02:45:57.125Z,99.99
2018-09-25T02:46:57.104Z,99.99
2018-09-25T02:47:57.082Z,99.99
2018-09-25T02:48:57.067Z,99.99
2018-09-25T02:49:57.048Z,99.99
2018-09-25T02:50:57.032Z,99.99
2018-09-25T02:51:57.009Z,99.99
2018-09-25T02:52:56.990Z,99.99
2018-09-25T02:53:56.980Z,99.99
2018-09-25T02:54:56.951Z,99.99
2018-09-25T02:55:56.938Z,99.99
2018-09-25T02:56:56.917Z,99.99
2018-09-25T02:57:56.899Z,99.99
2018-09-25T02:58:56.881Z,99.99
2018-09-25T02:59:56.868Z,99.99
2018-09-25T03:00:56.854Z,99.99
2018-09-25T03:01:56.822Z,99.99
2018-09-25T03:02:56.805Z,99.99
2018-09-25T03:03:56.795Z,99.99
2018-09-25T03:04:56.771Z,99.99
2018-09-25T03:05:56.748Z,99.99
2018-09-25T03:06:56.740Z,99.99
2018-09-25T03:07:56.710Z,99.99
2018-09-25T03:08:56.690Z,99.99
2018-09-25T03:09:56.681Z,99.99
2018-09-25T03:10:56.654Z,99.99
2018-09-25T03:11:56.633Z,99.99
2018-09-25T03:12:56.613Z,99.99
2018-09-25T03:13:56.598Z,99.99
2018-09-25T03:14:56.577Z,99.99
2018-09-25T03:15:56.560Z,99.99
2018-09-25T03:16:56.537Z,99.99
2018-09-25T03:17:56.520Z,99.99
2018-09-25T03:18:56.505Z,99.99
2018-09-25T03:19:56.482Z,99.99
2018-09-25T03:20:56.465Z,99.99
2018-09-25T03:21:56.446Z,99.99
2018-09-25T03:22:56.437Z,99.99
2018-09-25T03:23:56.499Z,99.99
2018-09-25T03:24:56.387Z,99.99
2018-09-25T03:25:56.378Z,99.99
2018-09-25T03:26:56.356Z,99.99
2018-09-25T03:27:56.339Z,99.99
2018-09-25T03:28:56.312Z,99.99
2018-09-25T03:29:56.294Z,99.99
2018-09-25T03:30:56.277Z,99.99
2018-09-25T03:31:56.254Z,99.99
2018-09-25T03:32:56.239Z,99.99
2018-09-25T03:33:56.225Z,99.99
2018-09-25T03:34:56.198Z,99.99
2018-09-25T03:35:56.183Z,99.99
2018-09-25T03:36:56.161Z,99.99
2018-09-25T03:37:56.144Z,99.99
2018-09-25T03:38:56.121Z,99.99
2018-09-25T03:39:56.103Z,99.99
2018-09-25T03:40:56.084Z,99.99
2018-09-25T03:41:56.069Z,99.99
2018-09-25T03:42:56.047Z,99.99
2018-09-25T03:43:56.030Z,99.99
2018-09-25T03:44:56.009Z,99.99
2018-09-25T03:45:55.994Z,99.99
2018-09-25T03:46:55.972Z,99.99
2018-09-25T03:47:55.950Z,99.99
2018-09-25T03:48:55.933Z,99.99
2018-09-25T03:49:55.916Z,99.99
2018-09-25T03:50:55.895Z,99.99
2018-09-25T03:51:55.879Z,99.99
2018-09-25T03:52:55.856Z,99.99
2018-09-25T03:53:55.835Z,99.99
2018-09-25T03:54:55.818Z,99.99
2018-09-25T03:55:55.801Z,99.99
2018-09-25T03:56:55.781Z,99.99
2018-09-25T03:57:55.761Z,99.99
2018-09-25T03:58:55.742Z,99.99
2018-09-25T03:59:55.737Z,99.99
2018-09-25T04:00:55.709Z,99.99
2018-09-25T04:01:55.685Z,99.99
2018-09-25T04:02:55.664Z,99.99
2018-09-25T04:03:55.645Z,99.99
2018-09-25T04:04:55.627Z,99.99
2018-09-25T04:05:55.610Z,99.99
2018-09-25T04:06:55.592Z,99.99
2018-09-25T04:07:55.574Z,99.99
2018-09-25T04:08:55.558Z,99.99
2018-09-25T04:09:55.531Z,99.99
2018-09-25T04:10:55.525Z,99.99
2018-09-25T04:11:55.507Z,99.99
2018-09-25T04:12:55.475Z,99.99
2018-09-25T04:13:55.457Z,99.99
2018-09-25T04:14:55.438Z,99.99
2018-09-25T04:15:55.415Z,99.99
2018-09-25T04:16:55.398Z,99.99
2018-09-25T04:17:55.383Z,99.99
2018-09-25T04:18:55.358Z,99.99
2018-09-25T04:19:55.338Z,99.99
2018-09-25T04:20:55.320Z,99.99
2018-09-25T04:21:55.307Z,99.99
2018-09-25T04:22:55.280Z,99.99
2018-09-25T04:23:55.261Z,99.99
2018-09-25T04:24:55.245Z,99.99
2018-09-25T04:25:55.237Z,99.99
2018-09-25T04:26:55.204Z,99.99
2018-09-25T04:27:55.184Z,99.99
2018-09-25T04:28:55.168Z,99.99
2018-09-25T04:29:55.147Z,99.99
2018-09-25T04:30:55.134Z,99.99
2018-09-25T04:31:55.108Z,99.99
2018-09-25T04:32:55.090Z,99.99
2018-09-25T04:33:55.069Z,99.99
2018-09-25T04:34:55.050Z,99.99
2018-09-25T04:35:55.033Z,99.99
2018-09-25T04:36:55.015Z,99.99
2018-09-25T04:37:54.996Z,99.99
2018-09-25T04:38:54.973Z,99.99
2018-09-25T04:39:54.961Z,99.99
2018-09-25T04:40:54.932Z,99.99
2018-09-25T04:41:54.913Z,99.99
2018-09-25T04:42:54.895Z,99.99
2018-09-25T04:43:54.875Z,99.99
2018-09-25T04:44:54.858Z,99.99
2018-09-25T04:45:54.838Z,99.99
2018-09-25T04:46:54.821Z,99.99
2018-09-25T04:47:54.822Z,99.99
2018-09-25T04:48:54.781Z,99.99
2018-09-25T04:49:54.760Z,99.99
2018-09-25T04:50:54.738Z,99.99
2018-09-25T04:51:54.718Z,99.99
2018-09-25T04:52:54.699Z,99.99
2018-09-25T04:53:54.690Z,99.99
2018-09-25T04:54:54.661Z,99.99
2018-09-25T04:55:54.641Z,99.99
2018-09-25T04:56:54.643Z,99.99
2018-09-25T04:57:54.602Z,99.99
2018-09-25T04:58:54.584Z,99.99
2018-09-25T04:59:54.562Z,99.99
2018-09-25T05:00:54.547Z,99.99
2018-09-25T05:01:54.528Z,99.99
2018-09-25T05:02:54.505Z,99.99
2018-09-25T05:03:54.486Z,99.99
2018-09-25T05:04:54.467Z,99.99
2018-09-25T05:05:54.448Z,99.99
2018-09-25T05:06:54.427Z,99.99
2018-09-25T05:07:54.409Z,99.99
2018-09-25T05:08:54.387Z,99.99
2018-09-25T05:09:54.369Z,99.99
2018-09-25T05:10:54.352Z,99.99
2018-09-25T05:11:54.336Z,99.99
2018-09-25T05:12:54.307Z,99.99
2018-09-25T05:13:54.289Z,99.99
2018-09-25T05:14:54.281Z,99.99
2018-09-25T05:15:54.249Z,99.99
2018-09-25T05:16:54.240Z,99.99
2018-09-25T05:17:54.224Z,99.99
2018-09-25T05:18:54.195Z,99.99
2018-09-25T05:19:54.171Z,99.99
2018-09-25T05:20:54.151Z,99.99
2018-09-25T05:21:54.132Z,99.99
2018-09-25T05:22:54.111Z,99.99
2018-09-25T05:23:54.092Z,99.99
2018-09-25T05:24:54.172Z,99.99
2018-09-25T05:25:54.054Z,99.99
2018-09-25T05:26:54.032Z,99.99
2018-09-25T05:27:54.016Z,99.99
2018-09-25T05:28:53.993Z,99.99
2018-09-25T05:29:53.974Z,99.99
2018-09-25T05:30:53.958Z,99.99
2018-09-25T05:31:53.936Z,99.99
2018-09-25T05:32:53.919Z,99.99
2018-09-25T05:33:53.896Z,99.99
2018-09-25T05:34:53.875Z,99.99
2018-09-25T05:35:53.861Z,99.99
2018-09-25T05:36:53.836Z,99.99
2018-09-25T05:37:53.816Z,99.99
2018-09-25T05:38:53.798Z,99.99
2018-09-25T05:39:53.780Z,99.99
2018-09-25T05:40:53.777Z,99.99
2018-09-25T05:41:53.751Z,99.99
2018-09-25T05:42:53.723Z,99.99
2018-09-25T05:43:53.698Z,99.99
2018-09-25T05:44:53.680Z,99.99
2018-09-25T05:45:53.662Z,99.99
2018-09-25T05:46:53.642Z,99.99
2018-09-25T05:47:53.621Z,99.99
2018-09-25T05:48:53.734Z,99.99
2018-09-25T05:49:53.586Z,99.99
2018-09-25T05:50:53.564Z,99.99
2018-09-25T05:51:53.545Z,99.99
2018-09-25T05:52:53.522Z,99.99
2018-09-25T05:53:53.511Z,99.99
2018-09-25T05:54:53.485Z,99.99
2018-09-25T05:55:53.473Z,99.99
2018-09-25T05:56:53.466Z,99.99
2018-09-25T05:57:53.430Z,99.99
2018-09-25T05:58:53.407Z,99.99
2018-09-25T05:59:53.385Z,99.99
2018-09-25T06:00:53.371Z,99.99
2018-09-25T06:01:53.355Z,99.99
2018-09-25T06:02:53.340Z,99.99
2018-09-25T06:03:53.307Z,99.99
2018-09-25T06:04:53.294Z,99.99
2018-09-25T06:05:53.269Z,99.99
2018-09-25T06:06:53.249Z,99.99
2018-09-25T06:07:53.239Z,99.99
2018-09-25T06:08:53.213Z,99.99
2018-09-25T06:09:53.202Z,99.99
2018-09-25T06:10:53.173Z,99.99
2018-09-25T06:11:53.155Z,99.99
2018-09-25T06:12:53.137Z,99.99
2018-09-25T06:13:53.113Z,99.99
2018-09-25T06:14:53.096Z,99.99
2018-09-25T06:15:53.083Z,99.99
2018-09-25T06:16:53.055Z,99.99
2018-09-25T06:17:53.037Z,99.99
2018-09-25T06:18:53.021Z,99.99
2018-09-25T06:19:52.995Z,99.99
2018-09-25T06:20:52.978Z,99.99
2018-09-25T06:21:52.958Z,99.99
2018-09-25T06:22:52.950Z,99.99
2018-09-25T06:23:52.935Z,99.99
2018-09-25T06:24:52.898Z,99.99
2018-09-25T06:25:52.880Z,99.99
2018-09-25T06:26:52.857Z,99.99
2018-09-25T06:27:52.851Z,99.99
2018-09-25T06:28:52.823Z,99.99
2018-09-25T06:29:52.803Z,99.99
2018-09-25T06:30:52.782Z,99.99
2018-09-25T06:31:52.764Z,99.99
2018-09-25T06:32:52.748Z,99.99
2018-09-25T06:33:52.728Z,99.99
2018-09-25T06:34:52.743Z,99.99
2018-09-25T06:35:52.690Z,99.99
2018-09-25T06:36:52.671Z,99.99
2018-09-25T06:37:52.652Z,99.99
2018-09-25T06:38:52.635Z,99.99
2018-09-25T06:39:52.618Z,99.99
2018-09-25T06:40:52.671Z,99.99
2018-09-25T06:41:52.580Z,99.99
2018-09-25T06:42:52.561Z,99.99
2018-09-25T06:43:52.553Z,99.99
2018-09-25T06:44:52.527Z,99.99
2018-09-25T06:45:52.511Z,99.99
2018-09-25T06:46:52.496Z,99.99
2018-09-25T06:47:52.484Z,99.99
2018-09-25T06:48:52.466Z,99.99
2018-09-25T06:49:52.453Z,97.47
2018-09-25T06:50:52.445Z,95.94
2018-09-25T06:51:52.422Z,93.02
2018-09-25T06:52:52.408Z,92.16
2018-09-25T06:53:52.398Z,92.02
2018-09-25T06:54:52.459Z,90.01
2018-09-25T06:55:52.368Z,88.68
2018-09-25T06:56:52.360Z,87.09
2018-09-25T06:57:52.350Z,87.24
2018-09-25T06:58:52.334Z,89.25
2018-09-25T06:59:52.330Z,87.82
2018-09-25T07:00:52.394Z,88.43
2018-09-25T07:01:52.306Z,87.00
2018-09-25T07:02:52.291Z,89.30
2018-09-25T07:03:52.283Z,92.31
2018-09-25T07:04:52.274Z,93.55
2018-09-25T07:05:52.265Z,94.51
2018-09-25T07:06:52.260Z,95.70
2018-09-25T07:07:52.246Z,91.69
2018-09-25T07:08:52.246Z,90.97
2018-09-25T07:09:52.251Z,88.91
2018-09-25T07:10:52.224Z,87.57
2018-09-25T07:11:52.214Z,84.80
2018-09-25T07:12:52.204Z,85.80
2018-09-25T07:13:52.201Z,83.03
2018-09-25T07:14:52.192Z,80.82
2018-09-25T07:15:52.188Z,82.79
2018-09-25T07:16:52.180Z,83.50
2018-09-25T07:17:52.283Z,81.54
2018-09-25T07:18:52.176Z,78.95
2018-09-25T07:19:52.168Z,79.75
2018-09-25T07:20:52.160Z,76.50
2018-09-25T07:21:52.156Z,75.96
2018-09-25T07:22:52.263Z,74.37
2018-09-25T07:23:52.162Z,71.72
2018-09-25T07:24:52.149Z,68.30
2018-09-25T07:25:52.142Z,67.29
2018-09-25T07:26:52.136Z,65.94
2018-09-25T07:27:52.135Z,65.78
2018-09-25T07:28:52.131Z,64.47
2018-09-25T07:29:52.130Z,62.90
2018-09-25T07:30:52.158Z,60.59
2018-09-25T07:31:52.124Z,60.33
2018-09-25T07:32:52.119Z,59.37
2018-09-25T07:33:52.120Z,58.63
2018-09-25T07:34:52.115Z,56.60
2018-09-25T07:35:52.112Z,57.28
2018-09-25T07:36:52.113Z,56.63
2018-09-25T07:37:52.113Z,55.41
2018-09-25T07:38:52.112Z,54.06
2018-09-25T07:39:52.275Z,54.38
2018-09-25T07:40:52.109Z,53.25
2018-09-25T07:41:52.109Z,52.40
2018-09-25T07:42:52.108Z,50.76
2018-09-25T07:43:52.106Z,51.05
2018-09-25T07:44:52.111Z,50.38
2018-09-25T07:45:52.111Z,50.01
2018-09-25T07:46:52.110Z,49.34
2018-09-25T07:47:52.112Z,49.05
2018-09-25T07:48:52.109Z,49.37
2018-09-25T07:49:52.112Z,50.04
2018-09-25T07:50:52.113Z,48.81
2018-09-25T07:51:52.109Z,48.37
2018-09-25T07:52:52.109Z,51.82
2018-09-25T07:53:52.116Z,54.16
2018-09-25T07:54:52.120Z,54.69
2018-09-25T07:55:52.126Z,52.98
2018-09-25T07:56:52.114Z,51.37
2018-09-25T07:57:52.120Z,49.65
2018-09-25T07:58:52.117Z,49.37
2018-09-25T07:59:52.130Z,48.79
2018-09-25T08:00:52.119Z,49.00
2018-09-25T08:01:52.125Z,48.16
2018-09-25T08:02:52.122Z,46.68
2018-09-25T08:03:52.135Z,47.28
2018-09-25T08:04:52.133Z,47.00
2018-09-25T08:05:52.132Z,46.34
2018-09-25T08:06:52.135Z,46.15
2018-09-25T08:07:52.140Z,45.78
2018-09-25T08:08:52.189Z,44.64
2018-09-25T08:09:52.141Z,44.57
2018-09-25T08:10:52.142Z,44.10
2018-09-25T08:11:52.141Z,44.01
2018-09-25T08:12:52.143Z,42.75
2018-09-25T08:13:52.152Z,42.63
2018-09-25T08:14:52.149Z,43.02
2018-09-25T08:15:52.156Z,43.00
2018-09-25T08:16:52.156Z,44.26
2018-09-25T08:17:52.157Z,44.98
2018-09-25T08:18:52.163Z,45.66
2018-09-25T08:19:52.165Z,45.20
2018-09-25T08:20:52.164Z,44.70
2018-09-25T08:21:52.170Z,44.72
2018-09-25T08:22:52.180Z,44.64
2018-09-25T08:23:52.180Z,43.89
2018-09-25T08:24:52.177Z,43.06
2018-09-25T08:25:52.179Z,41.61
2018-09-25T08:26:52.181Z,41.41
2018-09-25T08:27:52.187Z,42.68
2018-09-25T08:28:52.188Z,44.45
2018-09-25T08:29:52.190Z,43.21
2018-09-25T08:30:52.195Z,43.12
2018-09-25T08:31:52.197Z,42.36
2018-09-25T08:32:52.202Z,41.78
2018-09-25T08:33:52.202Z,41.88
2018-09-25T08:34:52.221Z,41.61
2018-09-25T08:35:52.209Z,41.61
2018-09-25T08:36:52.212Z,41.39
2018-09-25T08:37:52.218Z,43.55
2018-09-25T08:38:52.380Z,44.26
2018-09-25T08:39:52.221Z,43.58
2018-09-25T08:40:52.223Z,43.09
2018-09-25T08:41:52.225Z,42.82
2018-09-25T08:42:52.228Z,42.80
2018-09-25T08:43:52.232Z,43.21
2018-09-25T08:44:52.234Z,42.41
2018-09-25T08:45:52.297Z,42.82
2018-09-25T08:46:52.244Z,42.75
2018-09-25T08:47:52.248Z,42.07
2018-09-25T08:48:52.247Z,42.26
2018-09-25T08:49:52.253Z,42.19
2018-09-25T08:50:52.252Z,41.99
2018-09-25T08:51:52.257Z,40.95
2018-09-25T08:52:52.263Z,40.54
2018-09-25T08:53:52.262Z,40.95
2018-09-25T08:54:52.264Z,40.66
2018-09-25T08:55:52.264Z,40.46
2018-09-25T08:56:52.330Z,40.99
2018-09-25T08:57:52.383Z,42.63
2018-09-25T08:58:52.279Z,42.57
2018-09-25T08:59:52.274Z,42.57
2018-09-25T09:00:52.310Z,42.02
2018-09-25T09:01:52.278Z,40.67
2018-09-25T09:02:52.279Z,40.19
2018-09-25T09:03:52.279Z,39.80
2018-09-25T09:04:52.288Z,39.80
2018-09-25T09:05:52.285Z,39.88
2018-09-25T09:06:52.288Z,40.66
2018-09-25T09:07:52.285Z,40.77
2018-09-25T09:08:52.288Z,39.65
2018-09-25T09:09:52.290Z,38.67
2018-09-25T09:10:52.292Z,38.19
2018-09-25T09:11:52.296Z,38.40
2018-09-25T09:12:52.299Z,37.51
2018-09-25T09:13:52.294Z,39.20
2018-09-25T09:14:52.294Z,40.21
2018-09-25T09:15:52.299Z,41.08
2018-09-25T09:16:52.297Z,40.71
2018-09-25T09:17:52.298Z,40.44
2018-09-25T09:18:52.297Z,40.17
2018-09-25T09:19:52.331Z,39.28
2018-09-25T09:20:52.296Z,40.25
2018-09-25T09:21:52.297Z,40.64
2018-09-25T09:22:52.299Z,40.56
2018-09-25T09:23:52.298Z,39.88
2018-09-25T09:24:52.295Z,39.90
2018-09-25T09:25:52.299Z,38.73
2018-09-25T09:26:52.295Z,38.37
2018-09-25T09:27:52.295Z,39.06
2018-09-25T09:28:52.293Z,38.39
2018-09-25T09:29:52.292Z,38.48
2018-09-25T09:30:52.298Z,38.19
2018-09-25T09:31:52.290Z,39.36
2018-09-25T09:32:52.291Z,38.34
2018-09-25T09:33:52.286Z,38.83
2018-09-25T09:34:52.285Z,39.03
2018-09-25T09:35:52.284Z,39.04
2018-09-25T09:36:52.279Z,39.41
2018-09-25T09:37:52.278Z,39.22
2018-09-25T09:38:52.276Z,38.34
2018-09-25T09:39:52.274Z,38.37
2018-09-25T09:40:52.340Z,38.07
2018-09-25T09:41:52.428Z,38.46
2018-09-25T09:42:52.272Z,37.88
2018-09-25T09:43:52.269Z,38.09
2018-09-25T09:44:52.267Z,38.17
2018-09-25T09:45:52.259Z,38.96
2018-09-25T09:46:52.264Z,39.18
2018-09-25T09:47:52.257Z,38.48
2018-09-25T09:48:52.255Z,38.48
2018-09-25T09:49:52.253Z,39.04
2018-09-25T09:50:52.249Z,40.48
2018-09-25T09:51:52.253Z,39.34
2018-09-25T09:52:52.242Z,39.06
2018-09-25T09:53:52.238Z,39.16
2018-09-25T09:54:52.233Z,39.06
2018-09-25T09:55:52.231Z,38.85
2018-09-25T09:56:52.230Z,38.81
2018-09-25T09:57:52.230Z,39.92
2018-09-25T09:58:52.221Z,42.40
2018-09-25T09:59:52.215Z,43.07
2018-09-25T10:00:52.218Z,42.61
2018-09-25T10:01:52.213Z,42.05
2018-09-25T10:02:52.205Z,42.94
2018-09-25T10:03:52.199Z,42.85
2018-09-25T10:04:52.192Z,41.61
2018-09-25T10:05:52.194Z,42.09
2018-09-25T10:06:52.293Z,41.61
2018-09-25T10:07:52.180Z,40.64
2018-09-25T10:08:52.180Z,40.75
2018-09-25T10:09:52.175Z,40.44
2018-09-25T10:10:52.169Z,40.19
2018-09-25T10:11:52.168Z,42.00
2018-09-25T10:12:52.155Z,44.09
2018-09-25T10:13:52.151Z,44.84
2018-09-25T10:14:52.145Z,45.79
2018-09-25T10:15:52.141Z,45.81
2018-09-25T10:16:52.137Z,45.66
2018-09-25T10:17:52.127Z,45.08
2018-09-25T10:18:52.220Z,44.53
2018-09-25T10:19:52.128Z,43.46
2018-09-25T10:20:52.110Z,43.17
2018-09-25T10:21:52.110Z,42.78
2018-09-25T10:22:52.100Z,42.90
2018-09-25T10:23:52.091Z,42.03
2018-09-25T10:24:52.085Z,41.93
2018-09-25T10:25:52.083Z,42.51
2018-09-25T10:26:52.077Z,43.29
2018-09-25T10:27:52.066Z,41.76
2018-09-25T10:28:52.065Z,41.76
2018-09-25T10:29:52.060Z,41.79
2018-09-25T10:30:52.057Z,42.74
2018-09-25T10:31:52.042Z,43.40
2018-09-25T10:32:52.041Z,43.08
2018-09-25T10:33:52.093Z,44.70
2018-09-25T10:34:52.031Z,44.97
2018-09-25T10:35:52.017Z,45.53
2018-09-25T10:36:52.011Z,46.78
2018-09-25T10:37:52.008Z,48.11
2018-09-25T10:38:52.002Z,47.51
2018-09-25T10:39:51.996Z,47.89
2018-09-25T10:40:52.040Z,49.05
2018-09-25T10:41:51.977Z,48.86
2018-09-25T10:42:51.966Z,48.76
2018-09-25T10:43:51.961Z,49.22
2018-09-25T10:44:51.950Z,49.02
2018-09-25T10:45:51.941Z,49.99
2018-09-25T10:46:51.933Z,48.83
2018-09-25T10:47:51.927Z,47.87
2018-09-25T10:48:51.913Z,49.19
2018-09-25T10:49:51.952Z,48.43
2018-09-25T10:50:51.899Z,46.86
2018-09-25T10:51:51.890Z,47.44
2018-09-25T10:52:51.958Z,48.88
2018-09-25T10:53:51.879Z,50.42
2018-09-25T10:54:51.871Z,50.40
2018-09-25T10:55:51.969Z,51.26
2018-09-25T10:56:51.842Z,51.17
2018-09-25T10:57:51.836Z,51.74
2018-09-25T10:58:51.827Z,52.22
2018-09-25T10:59:51.813Z,53.09
2018-09-25T11:00:51.806Z,53.47
2018-09-25T11:01:51.795Z,53.57
2018-09-25T11:02:51.915Z,52.51
2018-09-25T11:03:51.774Z,52.61
2018-09-25T11:04:51.765Z,52.32
2018-09-25T11:05:51.753Z,52.42
2018-09-25T11:06:51.741Z,53.09
2018-09-25T11:07:51.731Z,52.42
2018-09-25T11:08:51.718Z,51.35
2018-09-25T11:09:51.720Z,51.55
2018-09-25T11:10:51.700Z,51.35
2018-09-25T11:11:51.688Z,50.90
2018-09-25T11:12:51.679Z,51.41
2018-09-25T11:13:51.668Z,50.66
2018-09-25T11:14:51.663Z,49.99
2018-09-25T11:15:51.647Z,49.82
2018-09-25T11:16:51.640Z,48.88
2018-09-25T11:17:51.628Z,47.55
2018-09-25T11:18:51.617Z,46.90
2018-09-25T11:19:51.615Z,46.23
2018-09-25T11:20:51.597Z,46.15
2018-09-25T11:21:51.589Z,44.80
2018-09-25T11:22:51.579Z,43.91
2018-09-25T11:23:51.569Z,44.51
2018-09-25T11:24:51.565Z,45.86
2018-09-25T11:25:51.549Z,44.60
2018-09-25T11:26:51.541Z,45.36
2018-09-25T11:27:51.532Z,45.55
2018-09-25T11:28:51.525Z,45.75
2018-09-25T11:29:51.513Z,46.33
2018-09-25T11:30:51.502Z,47.00
2018-09-25T11:31:51.496Z,46.59
2018-09-25T11:32:51.482Z,47.55
2018-09-25T11:33:51.485Z,47.53
2018-09-25T11:34:51.465Z,47.53
2018-09-25T11:35:51.453Z,48.21
2018-09-25T11:36:51.450Z,47.89
2018-09-25T11:37:51.444Z,47.80
2018-09-25T11:38:51.428Z,47.97
2018-09-25T11:39:51.415Z,47.87
2018-09-25T11:40:51.413Z,48.16
2018-09-25T11:41:51.396Z,48.16
2018-09-25T11:42:51.386Z,48.54
2018-09-25T11:43:51.377Z,49.77
2018-09-25T11:44:51.366Z,50.25
2018-09-25T11:45:51.417Z,50.35
2018-09-25T11:46:51.517Z,49.10
2018-09-25T11:47:51.340Z,48.90
2018-09-25T11:48:51.325Z,47.85
2018-09-25T11:49:51.335Z,48.61
2018-09-25T11:50:51.307Z,48.90
2018-09-25T11:51:51.300Z,48.90
2018-09-25T11:52:51.309Z,49.19
2018-09-25T11:53:51.278Z,48.74
2018-09-25T11:54:51.274Z,48.74
2018-09-25T11:55:51.257Z,48.08
2018-09-25T11:56:51.246Z,48.88
2018-09-25T11:57:51.237Z,47.14
2018-09-25T11:58:51.266Z,46.97
2018-09-25T11:59:51.214Z,45.75
2018-09-25T12:00:51.204Z,44.78
2018-09-25T12:01:51.198Z,43.24
2018-09-25T12:02:51.184Z,43.62
2018-09-25T12:03:51.174Z,44.29
2018-09-25T12:04:51.165Z,43.04
2018-09-25T12:05:51.166Z,42.66
2018-09-25T12:06:51.152Z,42.00
2018-09-25T12:07:51.139Z,41.71
2018-09-25T12:08:51.134Z,40.45
2018-09-25T12:09:51.119Z,40.86
2018-09-25T12:10:51.112Z,39.87
2018-09-25T12:11:51.097Z,40.61
2018-09-25T12:12:51.091Z,41.20
2018-09-25T12:13:51.188Z,40.63
2018-09-25T12:14:51.092Z,40.17
2018-09-25T12:15:51.065Z,39.78
2018-09-25T12:16:51.057Z,39.95
2018-09-25T12:17:51.049Z,41.30
2018-09-25T12:18:51.036Z,42.36
2018-09-25T12:19:51.055Z,43.14
2018-09-25T12:20:51.025Z,41.50
2018-09-25T12:21:51.009Z,42.27
2018-09-25T12:22:50.997Z,42.80
2018-09-25T12:23:50.989Z,42.97
2018-09-25T12:24:50.996Z,43.82
2018-09-25T12:25:50.978Z,44.21
2018-09-25T12:26:50.961Z,44.69
2018-09-25T12:27:50.952Z,44.89
2018-09-25T12:28:50.943Z,44.19
2018-09-25T12:29:50.933Z,44.59
2018-09-25T12:30:50.927Z,43.99
2018-09-25T12:31:50.922Z,44.96
2018-09-25T12:32:50.934Z,44.21
2018-09-25T12:33:50.950Z,44.49
2018-09-25T12:34:50.891Z,44.32
2018-09-25T12:35:50.875Z,44.02
2018-09-25T12:36:50.867Z,44.11
2018-09-25T12:37:50.856Z,44.62
2018-09-25T12:38:50.850Z,44.15
2018-09-25T12:39:50.836Z,44.35
2018-09-25T12:40:50.847Z,44.46
2018-09-25T12:41:50.819Z,43.58
2018-09-25T12:42:50.805Z,41.84
2018-09-25T12:43:50.803Z,42.11
2018-09-25T12:44:50.791Z,42.59
2018-09-25T12:45:50.779Z,44.25
2018-09-25T12:46:50.768Z,44.73
2018-09-25T12:47:50.756Z,44.85
2018-09-25T12:48:50.756Z,42.66
2018-09-25T12:49:50.736Z,41.86
2018-09-25T12:50:50.728Z,42.35
2018-09-25T12:51:50.723Z,43.43